Time;durP1;ratioP1;P1;durP2;ratioP2;P2;SDS_P1;SDS_P2;PMS_P1;PMS_P2;Temp;Humidity;BMP_temperature;BMP_pressure;BME280_temperature;BME280_humidity;BME280_pressure;Samples;Min_cycle;Max_cycle;Signal;HPM_P1;HPM_P2
2021/03/16 00:00:39;;;;;;;5.88;3.38;;;11.20;60.00;;;;;;7753273;23;20090;-83
2021/03/16 00:04:01;;;;;;;6.18;3.03;;;11.20;59.30;;;;;;7727830;23;20016;-82
2021/03/16 00:07:21;;;;;;;5.97;3.72;;;11.10;59.30;;;;;;7727806;23;20416;-82
2021/03/16 00:10:22;;;;;;;6.00;3.05;;;11.10;59.30;;;;;;7712594;23;20024;-82
2021/03/16 00:13:23;;;;;;;3.25;2.17;;;11.10;59.30;;;;;;7706608;23;20016;-83
2021/03/16 00:16:26;;;;;;;4.63;2.80;;;11.10;59.80;;;;;;7701852;23;20016;-83
2021/03/16 00:19:27;;;;;;;5.38;3.08;;;11.10;59.30;;;;;;7700320;23;20058;-83
2021/03/16 00:22:28;;;;;;;5.07;2.85;;;11.10;59.50;;;;;;7684237;23;20039;-83
2021/03/16 00:25:29;;;;;;;3.38;2.55;;;11.00;59.50;;;;;;7681206;23;20058;-82
2021/03/16 00:28:30;;;;;;;8.30;2.40;;;11.10;59.60;;;;;;7700547;23;20086;-82
2021/03/16 00:31:32;;;;;;;4.90;2.65;;;11.00;59.70;;;;;;7723328;23;20016;-82
2021/03/16 00:34:32;;;;;;;6.28;2.83;;;11.00;59.90;;;;;;7672535;23;20031;-83
2021/03/16 00:37:34;;;;;;;3.80;2.35;;;10.90;60.00;;;;;;7683680;23;20012;-82
2021/03/16 00:40:35;;;;;;;4.45;2.90;;;10.90;60.10;;;;;;7723905;23;20016;-83
2021/03/16 00:43:36;;;;;;;12.13;2.70;;;10.90;60.30;;;;;;7724963;23;20012;-82
2021/03/16 00:46:37;;;;;;;6.35;3.80;;;10.90;60.20;;;;;;7726613;23;20016;-82
2021/03/16 00:49:39;;;;;;;7.82;3.60;;;10.90;60.00;;;;;;7700355;23;20016;-83
2021/03/16 00:52:40;;;;;;;5.05;3.35;;;10.80;60.00;;;;;;7686127;23;20431;-83
2021/03/16 00:55:43;;;;;;;8.00;4.53;;;10.90;60.30;;;;;;7700132;23;20016;-82
2021/03/16 00:58:47;;;;;;;5.88;3.65;;;10.80;60.40;;;;;;7702187;23;20023;-82
2021/03/16 01:01:48;;;;;;;8.50;3.75;;;10.80;60.40;;;;;;7698932;23;20019;-82
2021/03/16 01:04:49;;;;;;;5.55;3.47;;;10.80;60.40;;;;;;7723507;23;20469;-84
2021/03/16 01:07:50;;;;;;;9.30;3.67;;;10.80;60.50;;;;;;7726755;23;20027;-82
2021/03/16 01:10:53;;;;;;;5.18;3.30;;;10.80;60.30;;;;;;7726678;23;20016;-82
2021/03/16 01:13:54;;;;;;;7.50;3.90;;;10.80;60.10;;;;;;7723611;23;20028;-82
2021/03/16 01:16:55;;;;;;;6.85;4.05;;;10.80;60.00;;;;;;7699054;23;20009;-82
2021/03/16 01:19:56;;;;;;;8.18;3.42;;;10.80;60.20;;;;;;7699865;23;20016;-83
2021/03/16 01:22:57;;;;;;;8.18;3.35;;;10.80;60.10;;;;;;7700790;23;20008;-82
2021/03/16 01:25:58;;;;;;;8.00;3.67;;;10.80;60.10;;;;;;7752172;23;20027;-82
2021/03/16 01:29:01;;;;;;;5.43;3.33;;;10.70;60.00;;;;;;7699362;23;20004;-83
2021/03/16 01:32:02;;;;;;;5.95;2.85;;;10.80;60.20;;;;;;7685791;23;20047;-83
2021/03/16 01:35:07;;;;;;;4.13;2.33;;;10.70;60.10;;;;;;7725262;23;20055;-83
2021/03/16 01:38:08;;;;;;;4.10;2.90;;;10.80;59.70;;;;;;7687031;23;20047;-83
2021/03/16 01:41:09;;;;;;;8.90;3.05;;;10.80;59.60;;;;;;7696945;23;20412;-82
2021/03/16 01:44:11;;;;;;;6.32;2.90;;;10.80;59.50;;;;;;7726990;23;20016;-81
2021/03/16 01:47:15;;;;;;;8.52;2.55;;;10.80;59.30;;;;;;7717739;23;20024;-82
2021/03/16 01:50:20;;;;;;;7.03;2.97;;;10.80;59.00;;;;;;7749550;23;20083;-84
2021/03/16 01:53:22;;;;;;;5.45;2.95;;;10.80;58.90;;;;;;7728013;23;20024;-82
2021/03/16 01:56:24;;;;;;;5.30;2.72;;;10.80;59.00;;;;;;7726537;23;20024;-83
2021/03/16 01:59:45;;;;;;;8.93;3.00;;;10.80;59.10;;;;;;7731883;23;20023;-83
2021/03/16 02:03:07;;;;;;;8.88;2.70;;;10.70;59.30;;;;;;7728827;23;20016;-82
2021/03/16 02:06:36;;;;;;;5.28;3.22;;;10.70;59.40;;;;;;7680748;23;20016;-81
2021/03/16 02:10:23;;;;;;;5.82;2.97;;;10.70;59.40;;;;;;7689242;23;20024;-82
2021/03/16 02:14:47;;;;;;;5.18;3.05;;;10.60;59.50;;;;;;7703788;23;20048;-83
2021/03/16 02:18:14;;;;;;;4.80;2.88;;;10.60;59.70;;;;;;7628036;23;20045;-83
2021/03/16 02:21:37;;;;;;;4.65;2.90;;;10.60;59.80;;;;;;7636864;23;20014;-83
2021/03/16 02:25:31;;;;;;;4.30;2.58;;;10.60;59.90;;;;;;7661480;23;20009;-83
2021/03/16 02:29:11;;;;;;;5.68;2.70;;;10.60;60.00;;;;;;7542017;23;20011;-83
2021/03/16 02:32:31;;;;;;;4.53;2.70;;;10.60;59.90;;;;;;7529473;23;20018;-83
2021/03/16 02:35:53;;;;;;;4.43;2.25;;;10.60;59.80;;;;;;7519648;23;20030;-82
2021/03/16 02:39:16;;;;;;;4.22;2.60;;;10.60;59.70;;;;;;7539739;23;20026;-82
2021/03/16 02:42:35;;;;;;;7.03;2.33;;;10.60;59.60;;;;;;7533858;23;20375;-83
2021/03/16 02:45:56;;;;;;;4.32;2.53;;;10.60;59.50;;;;;;7513507;23;20442;-82
2021/03/16 02:49:17;;;;;;;4.93;2.20;;;10.60;59.40;;;;;;7593136;23;20062;-82
2021/03/16 02:52:38;;;;;;;5.15;2.67;;;10.50;59.50;;;;;;7593902;23;20021;-81
2021/03/16 02:55:59;;;;;;;5.50;2.28;;;10.50;59.50;;;;;;7583873;23;20074;-83
2021/03/16 02:59:20;;;;;;;4.32;2.83;;;10.50;59.50;;;;;;7562428;23;20017;-82
2021/03/16 03:02:43;;;;;;;7.22;3.15;;;10.50;59.60;;;;;;7598237;23;20141;-82
2021/03/16 03:06:04;;;;;;;6.47;2.83;;;10.40;59.80;;;;;;7697226;23;20095;-83
2021/03/16 03:09:24;;;;;;;4.70;2.63;;;10.40;59.90;;;;;;7747192;23;20020;-84
2021/03/16 03:12:44;;;;;;;7.07;3.13;;;10.40;60.00;;;;;;7727765;23;20039;-82
2021/03/16 03:16:07;;;;;;;5.15;2.70;;;10.40;60.00;;;;;;7703874;23;20017;-83
2021/03/16 03:19:26;;;;;;;11.48;2.67;;;10.40;60.00;;;;;;7691237;23;20017;-83
2021/03/16 03:23:01;;;;;;;4.88;2.65;;;10.40;59.90;;;;;;7759171;23;20017;-83
2021/03/16 03:26:42;;;;;;;3.67;2.40;;;10.30;60.20;;;;;;7735089;23;20032;-82
2021/03/16 03:30:04;;;;;;;7.85;3.35;;;10.30;60.50;;;;;;7715976;23;20011;-83
2021/03/16 03:33:25;;;;;;;4.07;1.98;;;10.30;60.50;;;;;;7749370;23;20004;-82
2021/03/16 03:36:48;;;;;;;4.30;2.40;;;10.30;60.20;;;;;;7755509;23;20016;-80
2021/03/16 03:40:10;;;;;;;6.32;3.88;;;10.30;60.00;;;;;;7731659;23;20087;-82
2021/03/16 03:43:32;;;;;;;9.20;4.28;;;10.40;59.90;;;;;;7720297;23;20016;-82
2021/03/16 03:46:53;;;;;;;6.40;3.30;;;10.30;59.70;;;;;;7768115;23;20024;-82
2021/03/16 03:50:14;;;;;;;4.28;2.72;;;10.30;59.60;;;;;;7770564;23;20007;-83
2021/03/16 03:53:34;;;;;;;4.00;2.38;;;10.40;59.70;;;;;;7740943;23;20012;-82
2021/03/16 03:56:55;;;;;;;10.77;5.07;;;10.40;59.90;;;;;;7731011;23;20039;-81
2021/03/16 04:00:17;;;;;;;8.18;4.22;;;10.40;60.00;;;;;;7726518;23;20427;-82
2021/03/16 04:03:37;;;;;;;11.25;4.93;;;10.40;60.00;;;;;;7695677;23;20008;-82
2021/03/16 04:06:58;;;;;;;12.85;6.20;;;10.40;59.60;;;;;;7709686;23;20087;-82
2021/03/16 04:10:18;;;;;;;10.73;6.40;;;10.40;59.60;;;;;;7732519;23;20427;-82
2021/03/16 04:13:38;;;;;;;11.10;5.10;;;10.40;59.50;;;;;;7723759;23;20012;-82
2021/03/16 04:16:59;;;;;;;9.48;5.63;;;10.40;59.30;;;;;;7726418;23;20008;-82
2021/03/16 04:20:19;;;;;;;10.43;5.25;;;10.50;59.20;;;;;;7695489;23;20008;-86
2021/03/16 04:23:39;;;;;;;10.00;5.18;;;10.50;59.10;;;;;;7693190;23;20467;-84
2021/03/16 04:26:59;;;;;;;9.48;4.82;;;10.40;58.70;;;;;;7732951;23;20057;-83
2021/03/16 04:30:20;;;;;;;9.57;5.35;;;10.40;58.70;;;;;;7684602;23;20008;-81
2021/03/16 04:33:39;;;;;;;12.57;6.18;;;10.40;58.60;;;;;;7746051;23;20019;-84
2021/03/16 04:36:58;;;;;;;10.35;4.47;;;10.40;58.70;;;;;;7748478;23;20008;-83
2021/03/16 04:40:18;;;;;;;12.00;5.38;;;10.40;58.50;;;;;;7692491;23;20012;-82
2021/03/16 04:43:41;;;;;;;8.48;5.18;;;10.40;57.90;;;;;;7724139;23;20075;-82
2021/03/16 04:47:01;;;;;;;10.88;4.72;;;10.30;57.70;;;;;;7707730;23;20020;-82
2021/03/16 04:50:22;;;;;;;11.00;5.00;;;10.30;57.60;;;;;;7686557;23;20016;-82
2021/03/16 04:53:42;;;;;;;9.82;4.80;;;10.30;57.30;;;;;;7705130;23;20432;-82
2021/03/16 04:57:01;;;;;;;7.65;4.45;;;10.30;57.10;;;;;;7684332;23;20013;-82
2021/03/16 05:00:21;;;;;;;12.10;5.03;;;10.40;57.20;;;;;;7683794;23;20020;-83
2021/03/16 05:03:40;;;;;;;11.63;5.03;;;10.40;57.20;;;;;;7687458;23;20013;-82
2021/03/16 05:07:00;;;;;;;5.57;3.50;;;10.40;57.20;;;;;;7672493;23;20012;-83
2021/03/16 05:10:20;;;;;;;6.68;3.47;;;10.40;57.20;;;;;;7686627;23;20450;-82
2021/03/16 05:13:39;;;;;;;8.57;3.60;;;10.40;57.20;;;;;;7677543;23;20300;-82
2021/03/16 05:16:59;;;;;;;8.85;4.95;;;10.40;57.20;;;;;;7660796;23;20004;-83
2021/03/16 05:20:18;;;;;;;10.98;4.75;;;10.40;57.20;;;;;;7679768;23;20033;-83
2021/03/16 05:23:38;;;;;;;10.23;4.78;;;10.40;57.00;;;;;;7712624;23;20008;-83
2021/03/16 05:26:58;;;;;;;7.80;3.47;;;10.30;57.10;;;;;;7688895;23;20091;-83
2021/03/16 05:30:18;;;;;;;7.78;4.47;;;10.30;56.30;;;;;;7711056;23;20009;-83
2021/03/16 05:33:38;;;;;;;10.18;4.15;;;10.30;56.20;;;;;;7678125;23;20017;-82
2021/03/16 05:36:58;;;;;;;10.32;4.75;;;10.30;56.30;;;;;;7660591;23;20017;-82
2021/03/16 05:40:18;;;;;;;9.25;4.55;;;10.30;56.30;;;;;;7689732;23;20029;-82
2021/03/16 05:43:38;;;;;;;9.88;4.65;;;10.30;56.00;;;;;;7712666;23;20025;-82
2021/03/16 05:47:01;;;;;;;7.78;4.15;;;10.30;56.60;;;;;;7713546;23;20476;-80
2021/03/16 05:50:21;;;;;;;9.85;4.28;;;10.30;55.90;;;;;;7689001;23;20076;-81
2021/03/16 05:53:40;;;;;;;7.13;4.55;;;10.30;55.70;;;;;;7709633;23;20013;-81
2021/03/16 05:57:00;;;;;;;6.88;4.10;;;10.30;55.70;;;;;;7688789;23;20008;-81
2021/03/16 06:00:20;;;;;;;8.82;4.60;;;10.30;55.70;;;;;;7661873;23;20009;-82
2021/03/16 06:03:41;;;;;;;8.27;4.25;;;10.30;55.30;;;;;;7685051;23;20009;-81
2021/03/16 06:07:00;;;;;;;7.05;4.30;;;10.40;55.50;;;;;;7690831;23;20009;-81
2021/03/16 06:10:22;;;;;;;7.82;4.63;;;10.30;55.20;;;;;;7711644;23;20013;-80
2021/03/16 06:13:55;;;;;;;6.10;3.65;;;10.30;55.30;;;;;;7714460;23;20013;-80
2021/03/16 06:17:16;;;;;;;8.48;3.58;;;10.30;55.30;;;;;;7708125;23;20016;-81
2021/03/16 06:20:37;;;;;;;9.55;4.22;;;10.30;55.30;;;;;;7710331;23;20016;-80
2021/03/16 06:24:00;;;;;;;5.80;3.28;;;10.30;55.20;;;;;;7658676;23;20017;-79
2021/03/16 06:27:24;;;;;;;7.53;4.22;;;10.30;55.20;;;;;;7681335;23;20087;-80
2021/03/16 06:30:47;;;;;;;10.10;4.22;;;10.30;55.30;;;;;;7688618;23;20388;-78
2021/03/16 06:34:21;;;;;;;5.72;3.25;;;10.30;55.40;;;;;;7681175;23;20343;-79
2021/03/16 06:37:41;;;;;;;8.93;3.75;;;10.30;55.20;;;;;;7668823;23;20008;-80
2021/03/16 06:41:14;;;;;;;6.25;3.58;;;10.30;54.90;;;;;;7688439;23;20048;-80
2021/03/16 06:44:34;;;;;;;10.05;4.00;;;10.30;54.90;;;;;;7698528;23;20024;-79
2021/03/16 06:47:53;;;;;;;5.15;2.60;;;10.30;54.70;;;;;;7712859;23;20016;-81
2021/03/16 06:51:15;;;;;;;6.45;3.70;;;10.30;54.80;;;;;;7725204;23;20086;-80
2021/03/16 06:58:56;;;;;;;;;;;10.30;54.80;;;;;;7748087;23;20016;-80
2021/03/16 07:02:17;;;;;;;8.38;3.53;;;10.40;54.60;;;;;;7747563;23;19931;-80
2021/03/16 07:05:36;;;;;;;6.65;3.72;;;10.40;54.50;;;;;;7745815;23;20367;-84
2021/03/16 07:08:59;;;;;;;6.93;4.07;;;10.40;54.40;;;;;;7721234;23;20315;-80
2021/03/16 07:12:21;;;;;;;7.72;4.00;;;10.50;54.60;;;;;;7707107;23;20016;-79
2021/03/16 07:15:40;;;;;;;5.53;3.60;;;10.60;54.40;;;;;;7728955;23;20024;-80
2021/03/16 07:19:04;;;;;;;5.05;3.28;;;10.80;53.90;;;;;;7743704;23;20012;-80
2021/03/16 07:22:25;;;;;;;9.93;3.88;;;10.70;53.70;;;;;;7696710;23;20017;-79
2021/03/16 07:25:45;;;;;;;10.52;3.50;;;10.70;53.60;;;;;;7753224;23;20024;-79
2021/03/16 07:29:06;;;;;;;6.70;3.85;;;10.80;53.70;;;;;;7716203;23;20028;-78
2021/03/16 07:32:27;;;;;;;5.55;3.08;;;10.80;53.70;;;;;;7752919;23;20008;-80
2021/03/16 07:35:48;;;;;;;5.75;3.53;;;10.80;53.70;;;;;;7748459;23;20050;-79
2021/03/16 07:39:10;;;;;;;5.97;3.13;;;10.80;53.50;;;;;;7704291;23;20328;-79
2021/03/16 07:42:30;;;;;;;6.40;3.38;;;10.90;53.60;;;;;;7729005;23;20008;-80
2021/03/16 07:45:50;;;;;;;6.43;3.65;;;11.00;53.40;;;;;;7704065;23;20019;-80
2021/03/16 07:49:15;;;;;;;9.50;3.35;;;11.00;53.10;;;;;;7690627;23;20087;-82
2021/03/16 07:52:52;;;;;;;4.57;3.25;;;11.00;53.00;;;;;;7745334;23;20019;-80
2021/03/16 07:56:13;;;;;;;8.10;3.00;;;11.10;52.90;;;;;;7698469;23;20028;-80
2021/03/16 07:59:34;;;;;;;6.00;2.90;;;11.30;52.50;;;;;;7716597;23;20470;-80
2021/03/16 08:02:58;;;;;;;5.72;3.38;;;11.40;52.40;;;;;;7743558;23;20455;-80
2021/03/16 08:06:28;;;;;;;8.70;3.70;;;11.50;52.10;;;;;;7704805;23;20111;-80
2021/03/16 08:09:52;;;;;;;5.57;3.13;;;11.70;52.10;;;;;;7706950;23;20091;-80
2021/03/16 08:13:16;;;;;;;7.35;4.45;;;11.90;51.70;;;;;;7722511;23;20012;-80
2021/03/16 08:16:42;;;;;;;8.02;3.00;;;11.90;51.30;;;;;;7722098;23;20024;-80
2021/03/16 08:20:03;;;;;;;13.95;4.15;;;12.00;51.20;;;;;;7744382;23;20378;-80
2021/03/16 08:23:32;;;;;;;3.88;2.85;;;12.10;51.00;;;;;;7687607;23;20020;-80
2021/03/16 08:26:53;;;;;;;5.45;3.25;;;12.20;51.10;;;;;;7721381;23;20323;-81
2021/03/16 08:30:13;;;;;;;9.27;3.38;;;12.30;50.90;;;;;;7699707;23;20091;-80
2021/03/16 08:33:33;;;;;;;13.40;4.55;;;12.50;50.40;;;;;;7712323;23;20016;-79
2021/03/16 08:36:53;;;;;;;3.88;2.63;;;12.50;50.00;;;;;;7724581;23;20016;-79
2021/03/16 08:40:21;;;;;;;5.68;2.97;;;12.60;50.10;;;;;;7745741;23;20032;-80
2021/03/16 08:43:48;;;;;;;7.75;3.63;;;12.60;49.50;;;;;;7725838;23;20354;-80
2021/03/16 08:47:16;;;;;;;6.45;3.30;;;12.70;49.40;;;;;;7707811;23;20016;-79
2021/03/16 08:50:35;;;;;;;7.70;3.05;;;12.70;49.40;;;;;;7723056;23;20426;-79
2021/03/16 08:53:55;;;;;;;5.18;3.50;;;12.90;49.20;;;;;;7704642;23;20020;-80
2021/03/16 08:57:21;;;;;;;4.20;2.92;;;13.00;49.10;;;;;;7686311;23;20009;-80
2021/03/16 09:00:42;;;;;;;5.82;3.55;;;13.10;49.20;;;;;;7720756;23;20016;-80
2021/03/16 09:04:12;;;;;;;6.00;3.35;;;13.30;48.80;;;;;;7712038;23;20013;-80
2021/03/16 09:07:34;;;;;;;4.90;2.67;;;13.30;48.40;;;;;;7723877;23;20012;-78
2021/03/16 09:10:54;;;;;;;9.00;2.95;;;13.30;48.20;;;;;;7684280;23;20424;-79
2021/03/16 09:14:20;;;;;;;5.63;2.80;;;13.30;48.20;;;;;;7746401;23;20023;-79
2021/03/16 09:17:42;;;;;;;5.65;2.70;;;13.30;47.80;;;;;;7742126;23;20097;-81
2021/03/16 09:21:07;;;;;;;6.65;2.47;;;13.40;47.20;;;;;;7725302;23;20431;-80
2021/03/16 09:24:32;;;;;;;8.85;2.28;;;13.20;46.90;;;;;;7744296;23;20016;-79
2021/03/16 09:27:52;;;;;;;4.18;1.88;;;13.20;47.00;;;;;;7722331;23;20019;-79
2021/03/16 09:31:12;;;;;;;3.97;1.70;;;13.20;46.90;;;;;;7663164;23;20011;-80
2021/03/16 09:34:39;;;;;;;4.30;1.80;;;13.30;46.50;;;;;;7723089;23;20036;-79
2021/03/16 09:37:58;;;;;;;6.47;1.98;;;13.40;46.20;;;;;;7721435;23;20020;-80
2021/03/16 09:41:19;;;;;;;4.90;1.67;;;13.50;44.90;;;;;;7701033;23;20016;-79
2021/03/16 09:44:46;;;;;;;5.18;1.80;;;13.40;45.00;;;;;;7657473;23;20024;-79
2021/03/16 09:47:48;;;;;;;5.35;1.80;;;13.40;44.60;;;;;;7714446;23;20091;-80
2021/03/16 09:50:53;;;;;;;5.03;2.00;;;13.50;44.30;;;;;;7719774;23;20012;-80
2021/03/16 09:53:58;;;;;;;8.07;1.50;;;13.60;43.80;;;;;;7675888;23;20329;-80
2021/03/16 09:57:05;;;;;;;7.13;1.70;;;13.70;43.80;;;;;;7704226;23;20012;-81
2021/03/16 10:00:10;;;;;;;3.45;1.70;;;13.80;43.90;;;;;;7749510;23;20079;-79
2021/03/16 10:03:12;;;;;;;2.70;1.30;;;13.70;43.80;;;;;;7747235;23;20004;-80
2021/03/16 10:06:14;;;;;;;1.10;1.00;;;14.00;43.40;;;;;;7746358;23;20304;-79
2021/03/16 10:09:16;;;;;;;2.25;1.15;;;14.10;42.90;;;;;;7692372;23;20004;-79
2021/03/16 10:12:22;;;;;;;8.20;1.50;;;14.10;42.60;;;;;;7719740;23;20411;-79
2021/03/16 10:15:37;;;;;;;3.35;1.45;;;14.10;42.50;;;;;;7723248;23;20078;-79
2021/03/16 10:18:48;;;;;;;4.05;1.35;;;14.30;42.20;;;;;;7722909;23;20024;-78
2021/03/16 10:21:50;;;;;;;2.30;1.10;;;14.40;41.30;;;;;;7724520;23;20031;-80
2021/03/16 10:24:56;;;;;;;2.95;1.40;;;14.40;41.00;;;;;;7685091;23;20323;-78
2021/03/16 10:28:02;;;;;;;2.60;1.27;;;14.40;40.70;;;;;;7721851;23;20016;-79
2021/03/16 10:31:31;;;;;;;3.25;1.20;;;14.30;40.40;;;;;;7697886;23;20151;-83
2021/03/16 10:34:32;;;;;;;2.15;1.02;;;14.30;40.00;;;;;;7746576;23;20035;-78
2021/03/16 10:37:44;;;;;;;1.63;1.27;;;14.30;39.40;;;;;;7750151;23;20041;-76
2021/03/16 10:40:45;;;;;;;7.22;1.70;;;14.30;39.60;;;;;;7721212;23;20062;-79
2021/03/16 10:43:47;;;;;;;5.35;1.08;;;14.60;39.70;;;;;;7724358;23;20012;-80
2021/03/16 10:46:48;;;;;;;2.53;1.02;;;14.80;38.90;;;;;;7722247;23;20123;-78
2021/03/16 10:49:48;;;;;;;2.75;1.33;;;14.80;38.00;;;;;;7723983;23;20023;-77
2021/03/16 10:52:49;;;;;;;4.47;1.15;;;15.10;37.90;;;;;;7724218;23;20044;-78
2021/03/16 10:55:51;;;;;;;3.13;1.58;;;15.20;37.40;;;;;;7697369;23;20081;-79
2021/03/16 10:58:53;;;;;;;4.00;1.20;;;15.30;37.50;;;;;;7687905;23;20016;-78
2021/03/16 11:01:54;;;;;;;4.85;1.17;;;15.50;36.90;;;;;;7693048;23;20023;-77
2021/03/16 11:04:55;;;;;;;2.58;1.25;;;15.70;36.50;;;;;;7723905;23;20031;-78
2021/03/16 11:07:56;;;;;;;1.92;0.95;;;15.60;36.00;;;;;;7696766;23;20015;-77
2021/03/16 11:10:57;;;;;;;5.57;1.02;;;15.40;35.70;;;;;;7699434;23;20016;-77
2021/03/16 11:13:58;;;;;;;3.20;0.85;;;15.10;36.10;;;;;;7721827;23;20016;-77
2021/03/16 11:16:59;;;;;;;1.40;0.90;;;14.90;36.30;;;;;;7699482;23;20315;-78
2021/03/16 11:20:00;;;;;;;3.92;1.08;;;14.70;35.90;;;;;;7723081;23;20028;-77
2021/03/16 11:23:01;;;;;;;1.08;0.60;;;14.60;36.60;;;;;;7697444;23;20087;-78
2021/03/16 11:26:03;;;;;;;4.75;1.10;;;14.60;36.50;;;;;;7697420;23;20062;-78
2021/03/16 11:29:04;;;;;;;2.63;1.27;;;14.50;36.90;;;;;;7724275;23;20009;-77
2021/03/16 11:32:06;;;;;;;2.53;1.10;;;14.40;37.20;;;;;;7723100;23;20047;-79
2021/03/16 11:35:25;;;;;;;3.85;1.05;;;14.90;36.70;;;;;;7743151;23;20019;-79
2021/03/16 11:38:45;;;;;;;2.20;1.08;;;15.30;36.30;;;;;;7745822;23;20015;-77
2021/03/16 11:42:05;;;;;;;3.58;1.27;;;15.60;36.30;;;;;;7726661;23;20012;-77
2021/03/16 11:45:24;;;;;;;1.20;0.85;;;15.90;34.60;;;;;;7746684;23;20024;-76
2021/03/16 11:48:44;;;;;;;3.00;0.80;;;16.00;33.60;;;;;;7744637;23;20419;-76
2021/03/16 11:52:04;;;;;;;0.52;0.52;;;16.10;33.70;;;;;;7725736;23;20403;-77
2021/03/16 11:55:24;;;;;;;4.32;1.40;;;16.30;32.60;;;;;;7725873;23;20326;-76
2021/03/16 11:58:43;;;;;;;0.85;0.47;;;16.30;32.90;;;;;;7724356;23;20438;-77
2021/03/16 12:02:03;;;;;;;4.35;1.20;;;16.20;32.60;;;;;;7749099;23;20016;-78
2021/03/16 12:05:23;;;;;;;1.85;0.85;;;16.10;32.40;;;;;;7725222;23;20020;-76
2021/03/16 12:08:42;;;;;;;1.23;0.90;;;15.90;31.70;;;;;;7722292;23;20020;-76
2021/03/16 12:12:02;;;;;;;0.50;0.50;;;15.80;31.70;;;;;;7749692;23;20012;-76
2021/03/16 12:15:22;;;;;;;2.10;0.70;;;15.80;31.30;;;;;;7728750;23;20316;-78
2021/03/16 12:18:44;;;;;;;1.80;0.80;;;15.80;32.10;;;;;;7728459;23;20438;-78
2021/03/16 12:22:04;;;;;;;1.75;0.60;;;15.70;32.10;;;;;;7727416;23;20036;-76
2021/03/16 12:25:27;;;;;;;1.27;0.57;;;15.60;32.50;;;;;;7725483;23;20087;-78
2021/03/16 12:28:49;;;;;;;0.57;0.40;;;15.60;32.20;;;;;;7746648;23;20012;-78
2021/03/16 12:32:09;;;;;;;5.75;0.70;;;15.50;31.60;;;;;;7726444;23;20011;-77
2021/03/16 12:35:28;;;;;;;0.73;0.60;;;15.50;32.00;;;;;;7692130;23;20131;-76
2021/03/16 12:38:48;;;;;;;0.60;0.47;;;15.40;30.50;;;;;;7726770;23;20016;-76
2021/03/16 12:42:08;;;;;;;3.05;0.38;;;15.20;30.20;;;;;;7746928;23;20031;-77
2021/03/16 12:45:28;;;;;;;1.33;0.63;;;15.50;30.60;;;;;;7710151;23;20099;-75
2021/03/16 12:48:48;;;;;;;2.50;0.57;;;16.60;30.30;;;;;;7707840;23;20028;-76
2021/03/16 12:52:07;;;;;;;2.20;0.80;;;18.00;29.10;;;;;;7725312;23;20378;-76
2021/03/16 12:55:27;;;;;;;1.60;0.80;;;18.30;29.00;;;;;;7747754;23;20069;-74
2021/03/16 12:58:46;;;;;;;3.13;0.88;;;18.70;29.00;;;;;;7749202;23;20336;-75
2021/03/16 13:02:07;;;;;;;6.78;0.98;;;18.50;28.70;;;;;;7685437;23;20008;-76
2021/03/16 13:05:28;;;;;;;0.68;0.65;;;18.10;29.40;;;;;;7722831;23;20020;-77
2021/03/16 13:08:47;;;;;;;2.15;0.77;;;18.60;29.70;;;;;;7725892;23;20399;-76
2021/03/16 13:12:07;;;;;;;1.23;0.50;;;18.70;29.30;;;;;;7726407;23;20015;-77
2021/03/16 13:15:26;;;;;;;1.02;0.60;;;18.20;29.00;;;;;;7726872;23;20028;-76
2021/03/16 13:18:46;;;;;;;2.03;1.00;;;17.90;28.90;;;;;;7747683;23;20012;-77
2021/03/16 13:22:05;;;;;;;3.13;1.02;;;17.80;28.80;;;;;;7749131;23;20036;-77
2021/03/16 13:25:25;;;;;;;2.30;0.68;;;17.70;29.20;;;;;;7726299;23;20355;-76
2021/03/16 13:28:44;;;;;;;3.42;0.82;;;17.60;29.80;;;;;;7729753;23;20451;-75
2021/03/16 13:32:04;;;;;;;4.40;1.23;;;17.50;30.20;;;;;;7748491;23;20016;-77
2021/03/16 13:35:25;;;;;;;1.85;0.80;;;17.60;30.40;;;;;;7727874;23;20320;-75
2021/03/16 13:38:44;;;;;;;5.25;0.77;;;17.70;30.10;;;;;;7756886;23;20016;-76
2021/03/16 13:42:04;;;;;;;1.73;0.70;;;17.80;30.00;;;;;;7744835;23;20016;-77
2021/03/16 13:45:24;;;;;;;3.25;0.60;;;17.80;30.00;;;;;;7738643;23;20072;-75
2021/03/16 13:48:43;;;;;;;2.42;0.90;;;17.60;30.00;;;;;;7765426;23;20013;-77
2021/03/16 13:52:04;;;;;;;2.28;1.05;;;17.30;30.00;;;;;;7736838;23;20032;-75
2021/03/16 13:55:24;;;;;;;2.72;0.60;;;17.20;30.00;;;;;;7734530;23;20095;-75
2021/03/16 13:58:44;;;;;;;3.42;0.95;;;17.10;29.80;;;;;;7753182;23;20012;-76
2021/03/16 14:02:04;;;;;;;2.20;0.82;;;17.00;29.70;;;;;;7728901;23;20356;-76
2021/03/16 14:05:24;;;;;;;1.50;0.60;;;17.00;29.70;;;;;;7732398;23;20439;-76
2021/03/16 14:08:44;;;;;;;1.30;0.57;;;16.80;29.80;;;;;;7728320;23;20016;-75
2021/03/16 14:12:05;;;;;;;2.70;0.82;;;16.80;30.20;;;;;;7749833;23;20032;-74
2021/03/16 14:15:27;;;;;;;2.53;0.70;;;16.70;30.50;;;;;;7728246;23;20020;-77
2021/03/16 14:18:48;;;;;;;1.40;0.80;;;16.60;30.40;;;;;;7722789;23;20094;-78
2021/03/16 14:22:12;;;;;;;0.43;0.43;;;16.40;30.30;;;;;;7724034;23;20016;-77
2021/03/16 14:25:32;;;;;;;3.63;0.68;;;16.20;30.40;;;;;;7711066;23;20036;-76
2021/03/16 14:28:51;;;;;;;2.55;0.70;;;16.00;30.50;;;;;;7742464;23;20432;-76
2021/03/16 14:32:11;;;;;;;2.58;0.60;;;15.90;31.00;;;;;;7725857;23;20012;-76
2021/03/16 14:35:30;;;;;;;0.75;0.60;;;15.90;31.00;;;;;;7726553;23;20467;-77
2021/03/16 14:38:50;;;;;;;0.90;0.50;;;15.80;31.10;;;;;;7706035;23;20008;-77
2021/03/16 14:42:09;;;;;;;2.15;0.38;;;15.80;31.20;;;;;;7685427;23;20017;-75
2021/03/16 14:45:29;;;;;;;1.50;0.65;;;15.70;31.20;;;;;;7727008;23;20486;-76
2021/03/16 14:48:48;;;;;;;3.28;0.60;;;15.60;31.20;;;;;;7746823;23;20016;-78
2021/03/16 14:52:09;;;;;;;2.22;0.60;;;15.50;31.30;;;;;;7748622;23;20087;-76
2021/03/16 14:55:29;;;;;;;1.50;0.63;;;15.40;31.50;;;;;;7747865;23;20024;-76
2021/03/16 14:58:48;;;;;;;3.03;0.75;;;15.40;31.50;;;;;;7747914;23;20012;-77
2021/03/16 15:02:08;;;;;;;3.92;0.75;;;15.40;31.60;;;;;;7748733;23;20015;-76
2021/03/16 15:05:28;;;;;;;1.52;0.40;;;15.30;31.60;;;;;;7725993;23;20016;-77
2021/03/16 15:08:47;;;;;;;2.42;0.70;;;15.30;31.50;;;;;;7723907;23;20008;-77
2021/03/16 15:12:08;;;;;;;1.63;0.82;;;15.20;32.00;;;;;;7697138;23;20024;-77
2021/03/16 15:15:27;;;;;;;0.80;0.40;;;15.10;32.40;;;;;;7729856;23;20383;-75
2021/03/16 15:18:47;;;;;;;4.53;0.90;;;15.00;32.60;;;;;;7750377;23;20424;-76
2021/03/16 15:22:08;;;;;;;3.15;0.90;;;15.00;32.50;;;;;;7748703;23;20087;-76
2021/03/16 15:25:28;;;;;;;1.40;0.60;;;14.90;32.80;;;;;;7728320;23;20108;-77
2021/03/16 15:28:47;;;;;;;4.65;0.95;;;14.90;33.10;;;;;;7726171;23;20020;-75
2021/03/16 15:32:08;;;;;;;0.90;0.50;;;15.00;32.90;;;;;;7726676;23;20146;-78
2021/03/16 15:35:28;;;;;;;1.02;0.60;;;15.10;32.30;;;;;;7708063;23;20117;-77
2021/03/16 15:38:48;;;;;;;0.55;0.52;;;15.10;32.10;;;;;;7686083;23;20016;-77
2021/03/16 15:42:08;;;;;;;3.15;0.55;;;15.10;31.70;;;;;;7698470;23;20016;-78
2021/03/16 15:45:28;;;;;;;3.20;0.60;;;15.10;31.70;;;;;;7716337;23;20147;-77
2021/03/16 15:48:48;;;;;;;0.40;0.30;;;15.00;31.80;;;;;;7728710;23;20427;-80
2021/03/16 15:52:08;;;;;;;0.70;0.40;;;15.00;32.00;;;;;;7731909;23;20024;-78
2021/03/16 15:55:28;;;;;;;1.25;0.70;;;15.10;32.10;;;;;;7750011;23;20064;-80
2021/03/16 15:58:48;;;;;;;0.70;0.50;;;15.20;32.10;;;;;;7725335;23;20016;-81
2021/03/16 16:02:09;;;;;;;0.57;0.40;;;15.20;31.90;;;;;;7696513;23;20016;-81
2021/03/16 16:05:29;;;;;;;1.90;0.50;;;15.20;31.60;;;;;;7735960;23;20008;-80
2021/03/16 16:08:50;;;;;;;1.88;0.77;;;15.30;31.70;;;;;;7683243;23;20361;-80
2021/03/16 16:12:11;;;;;;;3.30;0.60;;;15.40;31.80;;;;;;7723480;23;20350;-80
2021/03/16 16:15:32;;;;;;;0.60;0.50;;;15.40;31.80;;;;;;7721749;23;20104;-80
2021/03/16 16:18:51;;;;;;;1.52;0.40;;;15.50;31.80;;;;;;7720898;23;20016;-81
2021/03/16 16:22:11;;;;;;;0.63;0.43;;;15.50;31.90;;;;;;7721336;23;20008;-81
2021/03/16 16:25:30;;;;;;;1.58;1.00;;;15.40;31.90;;;;;;7704169;23;20048;-80
2021/03/16 16:28:50;;;;;;;2.53;0.68;;;15.40;32.00;;;;;;7677839;23;20091;-80
2021/03/16 16:32:10;;;;;;;3.97;0.70;;;15.40;32.10;;;;;;7707487;23;20004;-82
2021/03/16 16:35:30;;;;;;;3.97;0.70;;;15.40;32.30;;;;;;7707837;23;20016;-82
2021/03/16 16:38:50;;;;;;;0.50;0.50;;;15.40;32.50;;;;;;7744354;23;20345;-81
2021/03/16 16:42:10;;;;;;;0.98;0.65;;;15.40;32.50;;;;;;7743245;23;20086;-81
2021/03/16 16:45:30;;;;;;;1.45;0.52;;;15.40;32.30;;;;;;7746475;23;20320;-82
2021/03/16 16:48:49;;;;;;;0.65;0.40;;;15.30;32.40;;;;;;7724771;23;20083;-76
2021/03/16 16:52:09;;;;;;;0.93;0.40;;;15.20;32.50;;;;;;7724050;23;20016;-78
2021/03/16 16:55:28;;;;;;;1.23;0.57;;;15.10;32.50;;;;;;7724777;23;20024;-78
2021/03/16 16:58:48;;;;;;;0.63;0.30;;;15.00;32.40;;;;;;7716830;23;20016;-78
2021/03/16 17:02:08;;;;;;;1.83;0.40;;;14.90;32.60;;;;;;7718932;23;20408;-78
2021/03/16 17:05:27;;;;;;;0.40;0.30;;;14.80;32.40;;;;;;7724066;23;20012;-78
2021/03/16 17:08:48;;;;;;;1.13;0.65;;;14.70;32.00;;;;;;7726070;23;20020;-77